createdAt,value
2022-12-12T00:02:17.827Z,93692.91
2022-12-12T00:04:44.943Z,93679.69
2022-12-12T00:07:11.924Z,93693.69
2022-12-12T00:09:39.144Z,93699.53
2022-12-12T00:12:06.671Z,93719.19
2022-12-12T00:14:33.931Z,93701.72
2022-12-12T00:17:01.155Z,93708.91
2022-12-12T00:19:28.414Z,93712.78
2022-12-12T00:21:55.372Z,93718.28
2022-12-12T00:24:22.386Z,93709.06
2022-12-12T00:26:49.487Z,93687.03
2022-12-12T00:29:16.362Z,93728.09
2022-12-12T00:31:43.397Z,93626.75
2022-12-12T00:34:10.442Z,93717.06
2022-12-12T00:36:37.465Z,93736.59
2022-12-12T00:39:05.008Z,93721.91
2022-12-12T00:41:32.158Z,93723.03
2022-12-12T00:43:59.354Z,93725.00
2022-12-12T00:46:26.620Z,93730.63
2022-12-12T00:48:56.189Z,93677.97
2022-12-12T00:51:26.817Z,93735.28
2022-12-12T00:53:56.516Z,93719.19
2022-12-12T00:56:25.117Z,93746.59
2022-12-12T00:58:52.326Z,93729.16
2022-12-12T01:01:26.857Z,93763.69
2022-12-12T01:03:54.501Z,93748.72
2022-12-12T01:06:21.996Z,93769.16
2022-12-12T01:08:49.473Z,93757.63
2022-12-12T01:11:17.711Z,93752.00
2022-12-12T01:13:46.088Z,93754.66
2022-12-12T01:16:13.301Z,93753.28
2022-12-12T01:18:41.416Z,93744.16
2022-12-12T01:21:14.034Z,93732.47
2022-12-12T01:23:42.084Z,93749.22
2022-12-12T01:26:14.554Z,93722.13
2022-12-12T01:28:42.837Z,93752.47
2022-12-12T01:31:10.362Z,93758.00
2022-12-12T01:33:37.737Z,93765.88
2022-12-12T01:36:05.855Z,93753.03
2022-12-12T01:38:33.012Z,93748.63
2022-12-12T01:40:59.937Z,93729.06
2022-12-12T01:43:28.936Z,93776.25
2022-12-12T01:46:00.062Z,93777.06
2022-12-12T01:48:32.136Z,93771.72
2022-12-12T01:51:02.252Z,93770.75
2022-12-12T01:53:31.687Z,93781.53
2022-12-12T01:55:59.066Z,93767.13
2022-12-12T01:58:26.313Z,93772.75
2022-12-12T02:00:53.384Z,93776.56
2022-12-12T02:03:20.298Z,93777.19
2022-12-12T02:05:52.443Z,93788.47
2022-12-12T02:08:23.356Z,93800.41
2022-12-12T02:10:51.020Z,93791.38
2022-12-12T02:13:27.281Z,93775.47
2022-12-12T02:16:18.742Z,93806.41
2022-12-12T02:19:01.270Z,93797.59
2022-12-12T02:21:36.303Z,93801.09
2022-12-12T02:24:09.922Z,93794.75
2022-12-12T02:26:50.342Z,93805.56
2022-12-12T02:29:29.615Z,93801.53
2022-12-12T02:32:08.720Z,93805.69
2022-12-12T02:34:50.235Z,93799.28
2022-12-12T02:37:24.728Z,93807.69
2022-12-12T02:40:33.309Z,93808.13
2022-12-12T02:43:02.954Z,93804.34
2022-12-12T02:45:40.038Z,93802.19
2022-12-12T02:48:17.112Z,93791.75
2022-12-12T02:50:47.599Z,93794.16
2022-12-12T02:53:19.148Z,93799.91
2022-12-12T02:55:46.241Z,93799.34
2022-12-12T02:58:14.632Z,93775.66
2022-12-12T03:01:11.273Z,93779.09
2022-12-12T03:04:03.694Z,93728.09
2022-12-12T03:07:17.812Z,93799.03
2022-12-12T03:10:06.234Z,93798.94
2022-12-12T03:13:10.447Z,93798.59
2022-12-12T03:15:41.932Z,93794.25
2022-12-12T03:18:20.577Z,93796.31
2022-12-12T03:21:10.610Z,93796.09
2022-12-12T03:23:43.109Z,93799.19
2022-12-12T03:26:33.541Z,93798.63
2022-12-12T03:29:13.076Z,93775.34
2022-12-12T03:31:45.178Z,93704.97
2022-12-12T03:34:21.083Z,93780.50
2022-12-12T03:37:05.742Z,93803.09
2022-12-12T03:39:42.454Z,93761.84
2022-12-12T03:42:15.792Z,93762.72
2022-12-12T03:44:49.738Z,93654.34
2022-12-12T03:47:24.995Z,93769.97
2022-12-12T03:49:59.377Z,93824.56
2022-12-12T03:52:33.836Z,93810.22
2022-12-12T03:55:08.570Z,93820.53
2022-12-12T03:57:51.299Z,93798.16
2022-12-12T04:00:18.730Z,93805.84
2022-12-12T04:03:06.065Z,93831.88
2022-12-12T04:05:37.498Z,93807.34
2022-12-12T04:08:13.107Z,93835.66
2022-12-12T04:11:06.874Z,93832.22
2022-12-12T04:13:53.586Z,93762.50
2022-12-12T04:16:30.101Z,93836.34
2022-12-12T04:19:46.083Z,93827.50
2022-12-12T04:22:39.317Z,93822.59
2022-12-12T04:25:26.248Z,93831.19
2022-12-12T04:27:57.594Z,93826.94
2022-12-12T04:30:28.029Z,93803.56
2022-12-12T04:33:14.655Z,93826.94
2022-12-12T04:35:48.801Z,93840.13
2022-12-12T04:38:24.427Z,93830.16
2022-12-12T04:40:55.601Z,93859.75
2022-12-12T04:43:28.743Z,93844.94
2022-12-12T04:46:05.037Z,93853.00
2022-12-12T04:48:54.733Z,93729.72
2022-12-12T04:51:27.097Z,93852.19
2022-12-12T04:54:10.253Z,93836.00
2022-12-12T04:56:39.681Z,93840.47
2022-12-12T04:59:07.808Z,93819.97
2022-12-12T05:01:53.802Z,93847.00
2022-12-12T05:04:38.310Z,93838.19
2022-12-12T05:07:15.555Z,93832.22
2022-12-12T05:09:43.640Z,93831.19
2022-12-12T05:12:11.554Z,93788.66
2022-12-12T05:14:38.767Z,93832.69
2022-12-12T05:17:12.033Z,93808.94
2022-12-12T05:19:39.295Z,93771.91
2022-12-12T05:22:06.326Z,93812.59
2022-12-12T05:24:33.653Z,93848.50
2022-12-12T05:27:00.801Z,93830.88
2022-12-12T05:29:30.007Z,93873.41
2022-12-12T05:31:56.978Z,93862.97
2022-12-12T05:34:24.119Z,93827.28
2022-12-12T05:36:51.245Z,93862.97
2022-12-12T05:39:18.203Z,93864.56
2022-12-12T05:41:46.204Z,93853.56
2022-12-12T05:44:13.362Z,93874.88
2022-12-12T05:46:40.366Z,93851.25
2022-12-12T05:49:07.567Z,93870.88
2022-12-12T05:51:34.685Z,93832.69
2022-12-12T05:54:01.676Z,93888.41
2022-12-12T05:56:28.822Z,93876.84
2022-12-12T05:58:55.760Z,93880.72
2022-12-12T06:01:22.947Z,93841.72
2022-12-12T06:03:50.128Z,93847.09
2022-12-12T06:06:17.345Z,93872.59
2022-12-12T06:08:44.272Z,93829.59
2022-12-12T06:11:12.781Z,93873.75
2022-12-12T06:13:39.848Z,93840.94
2022-12-12T06:16:08.905Z,93892.28
2022-12-12T06:18:36.516Z,93839.09
2022-12-12T06:21:05.812Z,93892.28
2022-12-12T06:23:36.259Z,93853.41
2022-12-12T06:26:04.259Z,93868.47
2022-12-12T06:28:31.590Z,93868.78
2022-12-12T06:30:59.406Z,93907.31
2022-12-12T06:33:27.617Z,93885.66
2022-12-12T06:36:02.978Z,93927.41
2022-12-12T06:38:30.870Z,93931.44
2022-12-12T06:40:58.466Z,93927.91
2022-12-12T06:43:25.854Z,93943.03
2022-12-12T06:45:52.840Z,93884.88
2022-12-12T06:48:19.923Z,93927.66
2022-12-12T06:50:46.910Z,93929.84
2022-12-12T06:53:13.951Z,93903.44
2022-12-12T06:55:43.119Z,93910.56
2022-12-12T06:58:11.489Z,93946.38
2022-12-12T07:00:38.503Z,93903.56
2022-12-12T07:03:05.991Z,93942.81
2022-12-12T07:05:34.535Z,93894.72
2022-12-12T07:08:02.996Z,93958.53
2022-12-12T07:10:30.556Z,93941.19
2022-12-12T07:12:57.818Z,93953.09
2022-12-12T07:15:24.725Z,93959.97
2022-12-12T07:17:53.816Z,93924.75
2022-12-12T07:20:21.012Z,93950.13
2022-12-12T07:22:48.087Z,93973.19
2022-12-12T07:25:15.566Z,93971.81
2022-12-12T07:27:43.098Z,93974.31
2022-12-12T07:30:10.650Z,93953.19
2022-12-12T07:32:38.943Z,93937.81
2022-12-12T07:35:06.119Z,93993.34
2022-12-12T07:37:33.327Z,93962.28
2022-12-12T07:40:00.572Z,94010.50
2022-12-12T07:42:27.717Z,93912.16
2022-12-12T07:44:54.787Z,94017.72
2022-12-12T07:47:22.218Z,93992.22
2022-12-12T07:49:49.212Z,93996.69
2022-12-12T07:52:16.182Z,93990.63
2022-12-12T07:54:44.166Z,94024.81
2022-12-12T07:57:11.257Z,94015.06
2022-12-12T07:59:38.515Z,94015.13
2022-12-12T08:02:05.582Z,94015.13
2022-12-12T08:04:33.250Z,94040.84
2022-12-12T08:07:05.373Z,94035.63
2022-12-12T08:09:36.596Z,94018.53
2022-12-12T08:12:04.043Z,94039.78
2022-12-12T08:14:31.114Z,94038.38
2022-12-12T08:16:58.900Z,94012.53
2022-12-12T08:19:26.500Z,94052.69
2022-12-12T08:21:53.477Z,94000.44
2022-12-12T08:24:20.594Z,93994.34
2022-12-12T08:26:49.880Z,94064.34
2022-12-12T08:29:16.826Z,94063.25
2022-12-12T08:31:44.270Z,94068.66
2022-12-12T08:34:11.447Z,94038.06
2022-12-12T08:36:38.522Z,94061.47
2022-12-12T08:39:08.563Z,94070.03
2022-12-12T08:41:38.308Z,94067.81
2022-12-12T08:44:06.730Z,94060.09
2022-12-12T08:46:34.521Z,94058.63
2022-12-12T08:49:01.703Z,94045.47
2022-12-12T08:51:29.184Z,94045.00
2022-12-12T08:53:56.486Z,94006.41
2022-12-12T08:56:24.390Z,94020.44
2022-12-12T08:58:52.082Z,94055.16
2022-12-12T09:01:21.704Z,94042.63
2022-12-12T09:03:49.116Z,94019.03
2022-12-12T09:06:16.804Z,94056.91
2022-12-12T09:08:45.698Z,94040.81
2022-12-12T09:11:13.826Z,94038.81
2022-12-12T09:13:41.327Z,94040.91
2022-12-12T09:16:09.579Z,94006.88
2022-12-12T09:18:37.460Z,93999.25
2022-12-12T09:21:05.082Z,94003.34
2022-12-12T09:23:32.093Z,94043.81
2022-12-12T09:25:59.396Z,94043.84
2022-12-12T09:28:26.971Z,93975.91
2022-12-12T09:30:54.047Z,94042.09
2022-12-12T09:33:21.176Z,94016.06
2022-12-12T09:35:57.246Z,94027.81
2022-12-12T09:38:24.373Z,94021.59
2022-12-12T09:41:02.728Z,94024.81
2022-12-12T09:43:47.532Z,93999.78
2022-12-12T09:46:25.078Z,93973.66
2022-12-12T09:48:52.340Z,93989.06
2022-12-12T09:51:25.016Z,93995.53
2022-12-12T09:53:52.270Z,93961.97
2022-12-12T09:56:29.195Z,94014.09
2022-12-12T09:59:07.107Z,94000.53
2022-12-12T10:01:41.905Z,93960.13
2022-12-12T10:04:30.389Z,94015.63
2022-12-12T10:07:02.586Z,94015.16
2022-12-12T10:09:57.740Z,94012.59
2022-12-12T10:12:26.212Z,93969.28
2022-12-12T10:14:59.036Z,93989.06
2022-12-12T10:17:44.082Z,94007.75
2022-12-12T10:20:21.188Z,93999.25
2022-12-12T10:23:26.708Z,94004.47
2022-12-12T10:26:08.909Z,93984.72
2022-12-12T10:28:36.009Z,94001.34
2022-12-12T10:31:35.163Z,93981.47
2022-12-12T10:34:11.680Z,93978.81
2022-12-12T10:37:08.901Z,93952.84
2022-12-12T10:39:58.869Z,93932.66
2022-12-12T10:42:29.080Z,93961.59
2022-12-12T10:45:18.113Z,93948.50
2022-12-12T10:47:45.776Z,93916.91
2022-12-12T10:50:16.455Z,93946.09
2022-12-12T10:52:43.417Z,93942.84
2022-12-12T10:55:38.976Z,93946.34
2022-12-12T10:58:06.763Z,93944.47
2022-12-12T11:00:35.459Z,93969.09
2022-12-12T11:03:27.573Z,93962.19
2022-12-12T11:05:57.254Z,93937.91
2022-12-12T11:08:32.229Z,93956.00
2022-12-12T11:11:21.449Z,93955.25
2022-12-12T11:13:56.254Z,93948.59
2022-12-12T11:16:42.169Z,93971.81
2022-12-12T11:19:19.925Z,93963.13
2022-12-12T11:21:47.933Z,93946.88
2022-12-12T11:24:18.448Z,93908.72
2022-12-12T11:26:51.871Z,93956.31
2022-12-12T11:29:50.108Z,93955.06
2022-12-12T11:32:30.988Z,93943.41
2022-12-12T11:35:03.089Z,93939.44
2022-12-12T11:37:39.565Z,93942.63
2022-12-12T11:40:19.948Z,93875.38
2022-12-12T11:42:47.294Z,93927.63
2022-12-12T11:49:47.207Z,93870.16
2022-12-12T11:52:20.943Z,93935.06
2022-12-12T11:54:48.705Z,93932.41
2022-12-12T11:57:27.412Z,93880.75
2022-12-12T12:00:13.011Z,93921.03
2022-12-12T12:03:11.752Z,93923.44
2022-12-12T12:06:19.562Z,93922.63
2022-12-12T12:09:05.064Z,93920.09
2022-12-12T12:11:32.196Z,93931.22
2022-12-12T12:14:05.280Z,93914.47
2022-12-12T12:16:44.401Z,93912.78
2022-12-12T12:19:40.345Z,93909.69
2022-12-12T12:22:28.883Z,93911.94
2022-12-12T12:25:33.258Z,93900.31
2022-12-12T12:28:38.586Z,93876.66
2022-12-12T12:31:19.048Z,93876.81
2022-12-12T12:34:14.380Z,93856.28
2022-12-12T12:36:52.676Z,93830.41
2022-12-12T12:39:42.242Z,93859.53
2022-12-12T12:42:30.613Z,93886.69
2022-12-12T12:45:21.934Z,93850.09
2022-12-12T12:47:52.271Z,93883.78
2022-12-12T12:50:24.255Z,93883.78
2022-12-12T12:52:54.367Z,93891.56
2022-12-12T12:55:26.902Z,93849.97
2022-12-12T12:57:54.587Z,93843.00
2022-12-12T13:00:24.808Z,93867.03
2022-12-12T13:03:03.405Z,93876.97
2022-12-12T13:05:36.947Z,93884.41
2022-12-12T13:08:13.711Z,93861.22
2022-12-12T13:10:52.040Z,93788.94
2022-12-12T13:13:31.647Z,93881.00
2022-12-12T13:16:01.339Z,93879.38
2022-12-12T13:18:44.420Z,93899.13
2022-12-12T13:21:24.440Z,93888.03
2022-12-12T13:24:01.417Z,93879.25
2022-12-12T13:26:40.910Z,93895.69
2022-12-12T13:29:32.874Z,93874.13
2022-12-12T13:32:28.416Z,93808.53
2022-12-12T13:35:02.928Z,93885.31
2022-12-12T13:37:33.351Z,93886.41
2022-12-12T13:40:06.368Z,93855.47
2022-12-12T13:43:05.509Z,93880.25
2022-12-12T13:45:40.468Z,93887.16
2022-12-12T13:48:25.734Z,93890.91
2022-12-12T13:51:27.536Z,93906.06
2022-12-12T13:54:12.117Z,93906.81
2022-12-12T13:56:55.599Z,93912.91
2022-12-12T13:59:22.711Z,93917.59
2022-12-12T14:01:52.208Z,93871.59
2022-12-12T14:04:42.053Z,93902.28
2022-12-12T14:07:19.174Z,93876.38
2022-12-12T14:09:55.977Z,93911.00
2022-12-12T14:12:31.564Z,93924.28
2022-12-12T14:15:04.821Z,93920.78
2022-12-12T14:17:42.336Z,93914.59
2022-12-12T14:20:29.482Z,93933.34
2022-12-12T14:22:59.563Z,93937.31
2022-12-12T14:25:36.397Z,93908.22
2022-12-12T14:28:27.170Z,93925.00
2022-12-12T14:30:57.617Z,93922.63
2022-12-12T14:33:31.023Z,93924.44
2022-12-12T14:36:17.574Z,93916.47
2022-12-12T14:39:01.448Z,93904.50
2022-12-12T14:41:35.446Z,93912.97
2022-12-12T14:44:36.962Z,93853.47
2022-12-12T14:46:55.100Z,93870.28
2022-12-12T14:49:22.253Z,93907.41
2022-12-12T14:51:52.299Z,93915.44
2022-12-12T14:54:22.410Z,93891.41
2022-12-12T14:56:56.671Z,93890.50
2022-12-12T14:59:27.646Z,93887.53
2022-12-12T15:02:00.853Z,93906.75
2022-12-12T15:04:38.327Z,93898.09
2022-12-12T15:07:21.363Z,93912.00
2022-12-12T15:09:49.934Z,93900.00
2022-12-12T15:12:21.002Z,93908.84
2022-12-12T15:14:48.367Z,93925.66
2022-12-12T15:17:34.736Z,93926.34
2022-12-12T15:20:09.643Z,93910.50
2022-12-12T15:22:48.820Z,93903.59
2022-12-12T15:25:19.962Z,93921.94
2022-12-12T15:27:55.756Z,93919.28
2022-12-12T15:30:40.980Z,93924.34
2022-12-12T15:33:17.558Z,93916.28
2022-12-12T15:36:01.520Z,93913.78
2022-12-12T15:38:30.094Z,93926.91
2022-12-12T15:41:09.601Z,93905.59
2022-12-12T15:43:43.516Z,93889.53
2022-12-12T15:46:15.477Z,93905.53
2022-12-12T15:48:44.242Z,93899.25
2022-12-12T15:51:13.541Z,93911.44
2022-12-12T15:53:49.146Z,93919.84
2022-12-12T15:56:19.517Z,93930.22
2022-12-12T15:58:53.763Z,93918.47
2022-12-12T16:01:28.128Z,93952.09
2022-12-12T16:04:21.095Z,93945.41
2022-12-12T16:06:48.870Z,93957.78
2022-12-12T16:09:18.886Z,93969.50
2022-12-12T16:11:52.057Z,93971.81
2022-12-12T16:14:42.657Z,93986.44
2022-12-12T16:17:17.994Z,93996.25
2022-12-12T16:19:55.907Z,93999.13
2022-12-12T16:22:44.651Z,94005.47
2022-12-12T16:25:22.931Z,94006.66
2022-12-12T16:27:57.798Z,94008.72
2022-12-12T16:30:26.509Z,94009.16
2022-12-12T16:32:54.850Z,94002.28
2022-12-12T16:35:24.734Z,93905.06
2022-12-12T16:37:55.371Z,94026.72
2022-12-12T16:40:23.467Z,93945.91
2022-12-12T16:43:07.783Z,94027.28
2022-12-12T16:45:38.476Z,93998.25
2022-12-12T16:48:21.854Z,94031.78
2022-12-12T16:50:51.043Z,94016.50
2022-12-12T16:53:19.208Z,94037.06
2022-12-12T16:55:49.426Z,94023.72
2022-12-12T16:58:17.815Z,93997.84
2022-12-12T17:00:45.346Z,94059.03
2022-12-12T17:03:14.597Z,94061.78
2022-12-12T17:05:42.847Z,94067.31
2022-12-12T17:08:10.454Z,94078.09
2022-12-12T17:10:38.116Z,94056.94
2022-12-12T17:13:08.282Z,94069.38
2022-12-12T17:15:35.541Z,93939.97
2022-12-12T17:18:05.875Z,94088.69
2022-12-12T17:20:37.429Z,94067.69
2022-12-12T17:25:55.863Z,94107.00
2022-12-12T17:28:28.214Z,94090.59
2022-12-12T17:30:55.518Z,94109.25
2022-12-12T17:33:23.181Z,94125.72
2022-12-12T17:36:01.603Z,94005.91
2022-12-12T17:38:30.683Z,93979.63
2022-12-12T17:41:02.279Z,94065.38
2022-12-12T17:43:29.478Z,94039.88
2022-12-12T17:45:58.222Z,94081.88
2022-12-12T17:48:31.574Z,94121.88
2022-12-12T17:51:01.663Z,94137.66
2022-12-12T17:53:38.420Z,94152.59
2022-12-12T17:56:08.552Z,94151.44
2022-12-12T17:58:38.134Z,94167.94
2022-12-12T18:01:19.534Z,94163.38
2022-12-12T18:03:48.152Z,94176.06
2022-12-12T18:06:15.592Z,94181.56
2022-12-12T18:08:47.628Z,94150.13
2022-12-12T18:11:19.979Z,94050.38
2022-12-12T18:13:50.144Z,94196.81
2022-12-12T18:16:19.104Z,94077.44
2022-12-12T18:18:46.570Z,94201.69
2022-12-12T18:21:43.424Z,94175.06
2022-12-12T18:24:06.831Z,94005.06
2022-12-12T18:26:33.997Z,94086.34
2022-12-12T18:29:03.991Z,94092.59
2022-12-12T18:31:32.159Z,94235.28
2022-12-12T18:33:59.503Z,94244.78
2022-12-12T18:36:28.597Z,94191.69
2022-12-12T18:38:57.314Z,94202.59
2022-12-12T18:41:26.379Z,94153.53
2022-12-12T18:43:54.491Z,94071.00
2022-12-12T18:46:24.885Z,94238.94
2022-12-12T18:48:52.410Z,94108.34
2022-12-12T18:51:23.280Z,94220.13
2022-12-12T18:53:52.917Z,94172.72
2022-12-12T18:56:22.953Z,94148.69
2022-12-12T18:58:52.009Z,94192.25
2022-12-12T19:01:21.719Z,94221.75
2022-12-12T19:03:51.284Z,94201.50
2022-12-12T19:06:23.775Z,94232.59
2022-12-12T19:08:51.777Z,94131.91
2022-12-12T19:11:18.784Z,94174.47
2022-12-12T19:13:47.616Z,94207.72
2022-12-12T19:16:19.784Z,94195.56
2022-12-12T19:18:47.653Z,94216.09
2022-12-12T19:21:21.458Z,94194.53
2022-12-12T19:23:50.452Z,94197.13
2022-12-12T19:26:20.170Z,94227.97
2022-12-12T19:28:47.839Z,94202.66
2022-12-12T19:31:17.081Z,94207.22
2022-12-12T19:33:46.298Z,94225.75
2022-12-12T19:36:16.710Z,94208.34
2022-12-12T19:38:45.351Z,94231.09
2022-12-12T19:41:14.657Z,94232.66
2022-12-12T19:43:42.897Z,94201.16
2022-12-12T19:46:13.335Z,94214.09
2022-12-12T19:48:41.723Z,94215.25
2022-12-12T19:51:17.275Z,94205.63
2022-12-12T19:53:47.085Z,94201.16
2022-12-12T19:56:16.752Z,94100.59
2022-12-12T19:58:44.375Z,94223.31
2022-12-12T20:01:18.977Z,94193.47
2022-12-12T20:03:54.318Z,94171.06
2022-12-12T20:06:22.801Z,94179.00
2022-12-12T20:08:51.308Z,94203.63
2022-12-12T20:11:21.161Z,94239.44
2022-12-12T20:13:50.852Z,94218.66
2022-12-12T20:16:20.114Z,94263.91
2022-12-12T20:18:49.803Z,94251.00
2022-12-12T20:21:43.573Z,94260.28
2022-12-12T20:24:08.103Z,94263.13
2022-12-12T20:26:35.762Z,94266.63
2022-12-12T20:29:03.380Z,94277.94
2022-12-12T20:31:33.658Z,94287.91
2022-12-12T20:34:00.855Z,94270.75
2022-12-12T20:36:31.673Z,94298.22
2022-12-12T20:38:59.732Z,94301.47
2022-12-12T20:41:32.580Z,94286.38
2022-12-12T20:44:00.566Z,94288.41
2022-12-12T20:46:33.748Z,94322.78
2022-12-12T20:49:03.162Z,94255.72
2022-12-12T20:51:55.403Z,94260.56
2022-12-12T20:54:21.546Z,94313.88
2022-12-12T20:56:49.539Z,94297.13
2022-12-12T20:59:16.432Z,94322.59
2022-12-12T21:01:43.635Z,94279.09
2022-12-12T21:04:11.284Z,94315.31
2022-12-12T21:06:48.380Z,94284.59
2022-12-12T21:09:23.119Z,94329.41
2022-12-12T21:11:54.311Z,94318.50
2022-12-12T21:14:21.414Z,94323.78
2022-12-12T21:16:48.622Z,94323.00
2022-12-12T21:19:17.349Z,94282.13
2022-12-12T21:21:45.892Z,94336.06
2022-12-12T21:24:14.899Z,94343.56
2022-12-12T21:26:42.878Z,94346.41
2022-12-12T21:29:10.539Z,94355.09
2022-12-12T21:31:50.500Z,94336.44
2022-12-12T21:34:21.930Z,94323.72
2022-12-12T21:36:53.886Z,94357.84
2022-12-12T21:39:23.659Z,94369.78
2022-12-12T21:41:51.510Z,94330.97
2022-12-12T21:44:20.254Z,94350.78
2022-12-12T21:46:47.615Z,94383.75
2022-12-12T21:49:26.869Z,94362.75
2022-12-12T21:52:00.334Z,94357.28
2022-12-12T21:54:32.998Z,94377.09
2022-12-12T21:57:00.689Z,94363.75
2022-12-12T21:59:29.161Z,94347.34
2022-12-12T22:01:58.174Z,94372.25
2022-12-12T22:04:25.783Z,94380.13
2022-12-12T22:06:52.883Z,94384.56
2022-12-12T22:09:21.048Z,94364.19
2022-12-12T22:11:52.204Z,94383.38
2022-12-12T22:14:30.976Z,94380.75
2022-12-12T22:16:58.120Z,94372.25
2022-12-12T22:19:25.260Z,94352.66
2022-12-12T22:21:52.178Z,94366.63
2022-12-12T22:24:19.289Z,94369.47
2022-12-12T22:26:49.290Z,94365.75
2022-12-12T22:29:20.262Z,94360.13
2022-12-12T22:31:50.349Z,94380.16
2022-12-12T22:34:20.924Z,94387.00
2022-12-12T22:36:48.473Z,94341.88
2022-12-12T22:39:21.503Z,94377.47
2022-12-12T22:41:50.376Z,94357.25
2022-12-12T22:44:19.710Z,94380.28
2022-12-12T22:46:48.751Z,94387.16
2022-12-12T22:49:20.123Z,94400.94
2022-12-12T22:51:47.780Z,94316.56
2022-12-12T22:54:15.572Z,94402.13
2022-12-12T22:56:43.950Z,94402.47
2022-12-12T22:59:13.492Z,94384.88
2022-12-12T23:01:41.781Z,94410.91
2022-12-12T23:04:14.512Z,94411.31
2022-12-12T23:06:43.085Z,94413.03
2022-12-12T23:09:20.872Z,94423.72
2022-12-12T23:11:49.925Z,94390.13
2022-12-12T23:14:19.864Z,94417.06
2022-12-12T23:16:47.416Z,94415.50
2022-12-12T23:19:17.494Z,94418.25
2022-12-12T23:21:45.448Z,94343.25
2022-12-12T23:24:12.978Z,94358.38
2022-12-12T23:26:40.177Z,94418.25
2022-12-12T23:29:09.731Z,94407.63
2022-12-12T23:31:38.530Z,94412.28
2022-12-12T23:34:09.499Z,94381.28
2022-12-12T23:36:36.724Z,94395.47
2022-12-12T23:39:08.041Z,94387.81
2022-12-12T23:41:36.755Z,94329.31
2022-12-12T23:44:05.116Z,94427.22
2022-12-12T23:46:32.986Z,94392.25
2022-12-12T23:49:14.478Z,94439.38
2022-12-12T23:51:46.956Z,94446.59
2022-12-12T23:54:20.092Z,94438.75
2022-12-12T23:56:48.351Z,94412.28
2022-12-12T23:59:18.189Z,94433.69
